Arcadia, IN (46030)

5:57 AM EDT on September 03, 2015 (GMT -0400)
Becks Corporate | | Change Station
CLOSE
Current Station
Personal Weather Station
Location: Atlanta, IN
Elevation: 866 ft
Nearby Weather Stations

Elev 866 ft 40.19 °N, 86.05 °W | Updated 1 minute ago

Clear
Clear
67.3 °F
Feels Like 67.3 °F
N
0.0
Wind Variable Wind from South
Gusts 0.0 mph

Today
High -- | Low -- °F
--% Chance of Precip.
Yesterday
High -- | Low -- °F
Precip. -- in
7:13 AM 8:12 PM
Waning Gibbous, 72% visible
Pressure 30.03 in
Visibility 0.2 miles
Clouds
Dew Point 66 °F
Humidity 95%
Rainfall 0.00 in
Snow Depth Not available.
UV Not available.
Pollen 10.70 out of 12
Air Quality Not available.
Flu Activity Not available.
METAR KTYQ 030935Z AUTO 00000KT 1/4SM FG VV002 18/16 A3003 RMK AO2 T01770161
Pressure 30.03 in
Visibility 0.2 miles
Clouds
Dew Point 66 °F
Humidity 95%
Rainfall 0.00 in
Snow Depth Not available.
UV Not available.
Pollen 10.70 out of 12
Air Quality Not available.
Flu Activity Not available.
METAR KTYQ 030935Z AUTO 00000KT 1/4SM FG VV002 18/16 A3003 RMK AO2 T01770161

10-Day Weather Forecast

×

Almanac

Astronomy

Sep. 03, 2015 Rise Set
Actual Time
Civil Twilight
Nautical Twilight
Astronomical Twilight
Moon
Length of Visible Light
Length of Day
Tomorrow will be .
, % of the Moon is Illuminated

Today's Extremes

State Highs State Lows

Community

WunderPhotos

Upload Photos

1,851,923 photos uploaded!

WunderBlogs® & News

Nearby

Air Quality

  Air Quality AQ Index Pollutant
Not available.

Snow Depth

Station Depth Elevation

Earthquake Activity

City Distance Mag. Time & Date
Minimum magnitude displayed is 2.5.

Coastal Water Temperatures

Place Temperature

Stations

Nearby Weather Stations

Station Location Temp. Windchill Dew Point Humidity Wind Precip. Elev Updated Type